createdAt,value
2023-03-05T00:01:33.856Z,3.20
2023-03-05T00:04:02.824Z,4.93
2023-03-05T00:06:31.409Z,6.63
2023-03-05T00:08:59.338Z,6.97
2023-03-05T00:11:30.323Z,2.63
2023-03-05T00:13:59.431Z,4.30
2023-03-05T00:16:28.725Z,2.20
2023-03-05T00:18:58.306Z,2.78
2023-03-05T00:21:25.865Z,2.97
2023-03-05T00:23:54.275Z,2.92
2023-03-05T00:26:23.886Z,2.33
2023-03-05T00:28:52.625Z,2.97
2023-03-05T00:31:23.555Z,3.33
2023-03-05T00:33:53.597Z,2.95
2023-03-05T00:36:21.340Z,1.52
2023-03-05T00:38:49.013Z,3.13
2023-03-05T00:41:17.031Z,2.33
2023-03-05T00:43:44.651Z,2.05
2023-03-05T00:46:12.199Z,2.75
2023-03-05T00:48:39.680Z,2.13
2023-03-05T00:51:07.280Z,3.28
2023-03-05T00:53:35.176Z,1.60
2023-03-05T00:56:02.966Z,1.73
2023-03-05T00:58:30.555Z,1.70
2023-03-05T01:01:00.030Z,3.97
2023-03-05T01:03:28.658Z,3.47
2023-03-05T01:05:57.637Z,2.85
2023-03-05T01:08:26.016Z,5.20
2023-03-05T01:10:53.632Z,4.75
2023-03-05T01:13:21.555Z,2.03
2023-03-05T01:15:51.131Z,2.28
2023-03-05T01:18:20.102Z,3.05
2023-03-05T01:20:48.144Z,1.90
2023-03-05T01:23:15.944Z,3.03
2023-03-05T01:25:43.458Z,1.52
2023-03-05T01:28:11.674Z,0.85
2023-03-05T01:30:39.186Z,1.13
2023-03-05T01:33:06.657Z,3.10
2023-03-05T01:35:34.263Z,3.40
2023-03-05T01:38:01.772Z,5.25
2023-03-05T01:40:30.729Z,4.72
2023-03-05T01:43:13.269Z,3.08
2023-03-05T01:46:19.139Z,2.33
2023-03-05T01:48:50.320Z,3.47
2023-03-05T01:51:20.234Z,1.38
2023-03-05T01:53:48.078Z,3.08
2023-03-05T01:56:16.841Z,1.83
2023-03-05T01:58:45.023Z,1.77
2023-03-05T02:01:12.956Z,1.27
2023-03-05T02:03:41.795Z,1.88
2023-03-05T02:06:09.639Z,1.98
2023-03-05T02:08:37.197Z,2.17
2023-03-05T02:11:05.174Z,1.55
2023-03-05T02:13:40.732Z,1.85
2023-03-05T02:16:08.623Z,3.47
2023-03-05T02:18:36.142Z,4.35
2023-03-05T02:21:07.822Z,1.70
2023-03-05T02:23:36.850Z,4.65
2023-03-05T02:26:08.806Z,0.85
2023-03-05T02:28:58.369Z,3.28
2023-03-05T02:31:26.863Z,2.25
2023-03-05T02:33:56.150Z,1.85
2023-03-05T02:36:25.320Z,1.80
2023-03-05T02:38:57.044Z,1.88
2023-03-05T02:41:24.859Z,2.03
2023-03-05T02:43:53.107Z,0.90
2023-03-05T02:46:20.816Z,2.53
2023-03-05T02:48:48.311Z,0.85
2023-03-05T02:51:15.991Z,1.52
2023-03-05T02:53:44.984Z,1.98
2023-03-05T02:56:13.062Z,1.67
2023-03-05T02:58:40.657Z,2.45
2023-03-05T03:01:10.320Z,1.05
2023-03-05T03:03:38.396Z,2.42
2023-03-05T03:06:10.053Z,6.00
2023-03-05T03:08:37.638Z,1.85
2023-03-05T03:11:09.818Z,1.38
2023-03-05T03:13:37.386Z,1.95
2023-03-05T03:16:07.798Z,2.00
2023-03-05T03:18:35.928Z,2.03
2023-03-05T03:21:03.909Z,1.00
2023-03-05T03:23:31.895Z,1.85
2023-03-05T03:25:59.491Z,2.13
2023-03-05T03:28:26.988Z,1.08
2023-03-05T03:30:54.495Z,0.73
2023-03-05T03:33:22.437Z,1.95
2023-03-05T03:35:50.088Z,2.30
2023-03-05T03:38:17.751Z,0.73
2023-03-05T03:40:45.207Z,1.05
2023-03-05T03:43:12.769Z,2.63
2023-03-05T03:45:44.214Z,1.13
2023-03-05T03:48:11.868Z,0.68
2023-03-05T03:50:43.128Z,1.75
2023-03-05T03:53:14.422Z,1.58
2023-03-05T03:55:42.972Z,1.17
2023-03-05T03:58:10.522Z,1.45
2023-03-05T04:00:38.987Z,0.95
2023-03-05T04:03:07.122Z,1.52
2023-03-05T04:05:34.603Z,1.55
2023-03-05T04:08:02.119Z,3.35
2023-03-05T04:10:29.578Z,0.70
2023-03-05T04:12:57.053Z,2.15
2023-03-05T04:15:25.086Z,1.00
2023-03-05T04:17:52.569Z,0.98
2023-03-05T04:20:20.128Z,1.45
2023-03-05T04:22:47.763Z,0.77
2023-03-05T04:25:15.297Z,1.23
2023-03-05T04:27:42.756Z,2.10
2023-03-05T04:30:14.614Z,1.88
2023-03-05T04:32:42.453Z,1.52
2023-03-05T04:35:10.498Z,1.02
2023-03-05T04:37:38.117Z,1.40
2023-03-05T04:40:06.108Z,2.75
2023-03-05T04:42:33.580Z,1.52
2023-03-05T04:45:00.996Z,1.38
2023-03-05T04:47:28.522Z,0.57
2023-03-05T04:49:55.934Z,1.52
2023-03-05T04:52:23.458Z,0.63
2023-03-05T04:54:51.025Z,1.98
2023-03-05T04:57:18.580Z,1.30
2023-03-05T04:59:46.291Z,0.98
2023-03-05T05:02:13.832Z,1.15
2023-03-05T05:04:45.058Z,0.63
2023-03-05T05:07:12.927Z,1.30
2023-03-05T05:09:41.668Z,0.90
2023-03-05T05:12:10.499Z,0.80
2023-03-05T05:14:38.115Z,0.50
2023-03-05T05:17:05.769Z,0.40
2023-03-05T05:19:35.158Z,1.02
2023-03-05T05:22:03.016Z,0.60
2023-03-05T05:24:30.587Z,2.20
2023-03-05T05:26:58.102Z,0.77
2023-03-05T05:29:26.149Z,1.63
2023-03-05T05:31:54.298Z,1.38
2023-03-05T05:34:22.114Z,1.52
2023-03-05T05:36:49.625Z,1.45
2023-03-05T05:39:18.985Z,0.93
2023-03-05T05:41:51.204Z,1.02
2023-03-05T05:44:19.081Z,0.77
2023-03-05T05:46:46.610Z,0.90
2023-03-05T05:49:14.138Z,1.88
2023-03-05T05:51:41.626Z,0.82
2023-03-05T05:54:14.580Z,0.95
2023-03-05T05:56:42.666Z,0.40
2023-03-05T05:59:11.016Z,1.17
2023-03-05T06:01:38.691Z,0.50
2023-03-05T06:04:06.173Z,1.75
2023-03-05T06:06:35.049Z,0.50
2023-03-05T06:09:02.903Z,0.50
2023-03-05T06:11:30.573Z,0.50
2023-03-05T06:13:58.323Z,0.77
2023-03-05T06:16:26.063Z,0.65
2023-03-05T06:18:53.794Z,0.57
2023-03-05T06:21:23.066Z,0.70
2023-03-05T06:23:51.235Z,0.45
2023-03-05T06:26:22.135Z,0.60
2023-03-05T06:28:49.584Z,0.75
2023-03-05T06:31:22.055Z,0.63
2023-03-05T06:33:50.108Z,1.45
2023-03-05T06:36:19.573Z,0.85
2023-03-05T06:38:48.925Z,0.45
2023-03-05T06:41:20.017Z,0.50
2023-03-05T06:43:49.168Z,0.63
2023-03-05T06:46:22.716Z,0.63
2023-03-05T06:48:51.206Z,0.70
2023-03-05T06:51:25.006Z,2.83
2023-03-05T06:53:53.561Z,1.40
2023-03-05T06:56:22.692Z,0.98
2023-03-05T06:58:51.953Z,1.27
2023-03-05T07:01:20.581Z,2.00
2023-03-05T07:03:53.244Z,0.68
2023-03-05T07:06:22.147Z,0.90
2023-03-05T07:08:50.444Z,0.68
2023-03-05T07:11:20.426Z,0.93
2023-03-05T07:13:48.374Z,0.75
2023-03-05T07:16:19.053Z,1.10
2023-03-05T07:18:47.006Z,0.60
2023-03-05T07:21:21.392Z,0.65
2023-03-05T07:23:49.180Z,0.50
2023-03-05T07:26:16.861Z,2.17
2023-03-05T07:28:44.395Z,0.65
2023-03-05T07:31:19.803Z,0.65
2023-03-05T07:33:49.438Z,0.70
2023-03-05T07:36:16.995Z,0.45
2023-03-05T07:38:44.998Z,0.65
2023-03-05T07:41:15.081Z,0.98
2023-03-05T07:43:42.608Z,0.50
2023-03-05T07:46:12.887Z,1.25
2023-03-05T07:48:40.368Z,0.57
2023-03-05T07:51:15.862Z,0.57
2023-03-05T07:53:44.763Z,0.63
2023-03-05T07:56:12.442Z,0.40
2023-03-05T07:58:40.117Z,0.50
2023-03-05T08:01:15.280Z,0.55
2023-03-05T08:03:43.798Z,0.50
2023-03-05T08:06:12.838Z,0.40
2023-03-05T08:08:40.440Z,0.40
2023-03-05T08:11:10.497Z,1.33
2023-03-05T08:13:38.206Z,0.45
2023-03-05T08:16:18.418Z,0.73
2023-03-05T08:18:46.646Z,0.60
2023-03-05T08:21:33.793Z,0.32
2023-03-05T08:24:07.425Z,0.40
2023-03-05T08:26:38.534Z,0.93
2023-03-05T08:29:07.663Z,0.85
2023-03-05T08:31:35.750Z,0.30
2023-03-05T08:34:04.650Z,0.57
2023-03-05T08:36:32.310Z,0.40
2023-03-05T08:39:00.034Z,0.35
2023-03-05T08:41:27.887Z,0.47
2023-03-05T08:43:55.448Z,0.30
2023-03-05T08:46:23.096Z,0.40
2023-03-05T08:48:50.647Z,0.45
2023-03-05T08:51:25.830Z,0.63
2023-03-05T08:53:56.010Z,1.10
2023-03-05T08:56:23.536Z,0.30
2023-03-05T08:58:52.481Z,1.30
2023-03-05T09:01:20.322Z,0.50
2023-03-05T09:03:47.770Z,0.73
2023-03-05T09:06:15.356Z,0.82
2023-03-05T09:08:42.853Z,0.50
2023-03-05T09:11:12.702Z,0.40
2023-03-05T09:13:40.661Z,0.40
2023-03-05T09:16:12.100Z,0.80
2023-03-05T09:18:40.664Z,0.68
2023-03-05T09:21:10.788Z,1.90
2023-03-05T09:23:38.716Z,0.90
2023-03-05T09:26:09.883Z,2.10
2023-03-05T09:28:37.860Z,0.70
2023-03-05T09:31:06.416Z,1.77
2023-03-05T09:33:34.417Z,0.93
2023-03-05T09:36:02.660Z,0.98
2023-03-05T09:38:30.259Z,0.50
2023-03-05T09:41:31.119Z,0.70
2023-03-05T09:44:17.092Z,0.55
2023-03-05T09:47:03.306Z,0.60
2023-03-05T09:49:47.937Z,0.95
2023-03-05T09:52:21.720Z,0.60
2023-03-05T09:54:55.521Z,0.93
2023-03-05T09:57:27.533Z,0.88
2023-03-05T09:59:59.971Z,3.17
2023-03-05T10:02:35.423Z,1.85
2023-03-05T10:06:16.947Z,1.08
2023-03-05T10:09:07.673Z,1.65
2023-03-05T10:11:57.437Z,1.75
2023-03-05T10:14:34.425Z,3.78
2023-03-05T10:17:23.803Z,0.80
2023-03-05T10:20:15.575Z,2.33
2023-03-05T10:23:08.816Z,1.55
2023-03-05T10:25:58.102Z,4.72
2023-03-05T10:28:41.936Z,2.67
2023-03-05T10:31:18.576Z,3.40
2023-03-05T10:33:51.855Z,0.70
2023-03-05T10:36:46.884Z,1.88
2023-03-05T10:39:33.095Z,2.13
2023-03-05T10:42:21.949Z,2.13
2023-03-05T10:44:54.493Z,1.20
2023-03-05T10:47:49.831Z,1.10
2023-03-05T10:50:19.595Z,2.42
2023-03-05T10:53:01.346Z,0.85
2023-03-05T10:55:28.927Z,1.13
2023-03-05T10:57:56.490Z,1.58
2023-03-05T11:00:27.829Z,1.90
2023-03-05T11:03:02.579Z,2.75
2023-03-05T11:05:39.207Z,0.60
2023-03-05T11:08:37.471Z,2.05
2023-03-05T11:11:12.945Z,3.25
2023-03-05T11:13:58.328Z,4.72
2023-03-05T11:16:29.037Z,2.67
2023-03-05T11:19:30.057Z,4.40
2023-03-05T11:22:21.837Z,4.10
2023-03-05T11:25:18.750Z,6.07
2023-03-05T11:30:30.914Z,3.25
2023-03-05T11:33:16.460Z,2.47
2023-03-05T11:35:44.762Z,4.07
2023-03-05T11:38:27.292Z,4.80
2023-03-05T11:40:57.354Z,8.20
2023-03-05T11:47:01.728Z,2.88
2023-03-05T11:49:32.928Z,4.57
2023-03-05T11:52:13.127Z,10.95
2023-03-05T11:55:17.285Z,4.68
2023-03-05T11:58:09.286Z,11.70
2023-03-05T12:00:45.080Z,6.82
2023-03-05T12:03:16.184Z,1.98
2023-03-05T12:05:48.856Z,1.45
2023-03-05T12:08:46.840Z,2.88
2023-03-05T12:11:36.207Z,2.33
2023-03-05T12:14:20.907Z,2.72
2023-03-05T12:16:58.530Z,7.15
2023-03-05T12:19:40.496Z,2.00
2023-03-05T12:22:37.111Z,4.53
2023-03-05T12:25:32.624Z,1.60
2023-03-05T12:28:01.348Z,2.92
2023-03-05T12:30:34.714Z,3.10
2023-03-05T12:33:04.161Z,3.45
2023-03-05T12:35:35.976Z,2.88
2023-03-05T12:38:28.171Z,5.80
2023-03-05T12:41:26.830Z,6.75
2023-03-05T12:44:07.685Z,7.65
2023-03-05T12:46:44.115Z,4.28
2023-03-05T12:49:20.552Z,9.15
2023-03-05T12:51:50.374Z,7.40
2023-03-05T12:54:20.631Z,9.18
2023-03-05T12:56:48.191Z,11.10
2023-03-05T12:59:19.916Z,5.65
2023-03-05T13:02:03.484Z,5.30
2023-03-05T13:04:33.749Z,7.25
2023-03-05T13:07:13.627Z,5.22
2023-03-05T13:09:41.183Z,4.40
2023-03-05T13:12:13.918Z,1.83
2023-03-05T13:14:46.406Z,3.72
2023-03-05T13:17:29.400Z,4.47
2023-03-05T13:19:58.723Z,8.52
2023-03-05T13:22:26.383Z,10.57
2023-03-05T13:25:17.391Z,5.78
2023-03-05T13:27:44.943Z,4.97
2023-03-05T13:30:38.901Z,4.72
2023-03-05T13:33:06.475Z,4.90
2023-03-05T13:35:34.967Z,8.48
2023-03-05T13:38:02.555Z,9.20
2023-03-05T13:40:32.320Z,7.00
2023-03-05T13:43:19.808Z,4.90
2023-03-05T13:45:55.123Z,7.68
2023-03-05T13:48:22.893Z,7.55
2023-03-05T13:50:58.390Z,8.70
2023-03-05T13:53:31.227Z,5.28
2023-03-05T13:56:04.845Z,13.25
2023-03-05T13:58:48.825Z,9.48
2023-03-05T14:01:32.922Z,7.20
2023-03-05T14:04:07.226Z,9.35
2023-03-05T14:06:42.379Z,8.00
2023-03-05T14:09:28.757Z,5.30
2023-03-05T14:12:00.641Z,5.05
2023-03-05T14:14:31.018Z,4.57
2023-03-05T14:17:27.399Z,9.57
2023-03-05T14:20:23.077Z,8.25
2023-03-05T14:22:56.928Z,6.22
2023-03-05T14:25:35.138Z,8.77
2023-03-05T14:28:05.673Z,4.80
2023-03-05T14:30:36.193Z,17.48
2023-03-05T14:33:04.391Z,5.75
2023-03-05T14:35:32.092Z,8.00
2023-03-05T14:38:00.691Z,5.28
2023-03-05T14:40:32.105Z,2.95
2023-03-05T14:43:05.110Z,4.70
2023-03-05T14:45:38.344Z,1.48
2023-03-05T14:48:07.630Z,6.57
2023-03-05T14:50:56.906Z,5.20
2023-03-05T14:53:28.939Z,3.30
2023-03-05T14:55:57.323Z,4.00
2023-03-05T14:58:28.031Z,4.90
2023-03-05T15:00:56.892Z,2.15
2023-03-05T15:03:25.393Z,1.70
2023-03-05T15:05:55.433Z,3.05
2023-03-05T15:08:29.416Z,2.15
2023-03-05T15:10:57.803Z,2.42
2023-03-05T15:13:25.628Z,3.30
2023-03-05T15:15:53.921Z,7.13
2023-03-05T15:18:22.756Z,6.40
2023-03-05T15:20:54.878Z,3.22
2023-03-05T15:23:22.837Z,3.50
2023-03-05T15:25:50.943Z,5.57
2023-03-05T15:28:18.458Z,7.32
2023-03-05T15:30:47.668Z,2.25
2023-03-05T15:33:17.713Z,7.32
2023-03-05T15:35:45.747Z,4.38
2023-03-05T15:38:13.274Z,4.63
2023-03-05T15:40:40.742Z,5.10
2023-03-05T15:43:08.163Z,4.15
2023-03-05T15:45:35.745Z,4.68
2023-03-05T15:48:03.220Z,6.07
2023-03-05T15:50:30.820Z,4.53
2023-03-05T15:52:58.860Z,4.47
2023-03-05T15:55:26.574Z,2.47
2023-03-05T15:57:54.354Z,1.42
2023-03-05T16:00:29.385Z,3.92
2023-03-05T16:02:56.878Z,1.48
2023-03-05T16:05:24.548Z,1.90
2023-03-05T16:07:53.433Z,5.45
2023-03-05T16:10:26.873Z,2.88
2023-03-05T16:12:59.140Z,2.15
2023-03-05T16:15:27.173Z,6.10
2023-03-05T16:17:56.157Z,4.47
2023-03-05T16:20:24.044Z,8.05
2023-03-05T16:22:51.559Z,5.35
2023-03-05T16:25:19.214Z,3.05
2023-03-05T16:27:46.668Z,7.82
2023-03-05T16:30:17.965Z,6.03
2023-03-05T16:32:45.576Z,8.05
2023-03-05T16:35:13.234Z,17.35
2023-03-05T16:37:41.638Z,6.47
2023-03-05T16:40:11.276Z,6.28
2023-03-05T16:42:38.798Z,4.32
2023-03-05T16:45:07.334Z,4.47
2023-03-05T16:47:35.372Z,7.40
2023-03-05T16:50:03.314Z,4.28
2023-03-05T16:52:31.043Z,5.38
2023-03-05T16:54:58.547Z,4.32
2023-03-05T16:57:26.511Z,9.93
2023-03-05T16:59:54.515Z,3.25
2023-03-05T17:02:22.381Z,5.22
2023-03-05T17:04:50.534Z,9.13
2023-03-05T17:07:18.669Z,3.83
2023-03-05T17:09:47.977Z,6.97
2023-03-05T17:12:15.514Z,7.47
2023-03-05T17:14:42.948Z,4.63
2023-03-05T17:17:10.640Z,7.22
2023-03-05T17:19:39.299Z,6.22
2023-03-05T17:22:06.944Z,7.60
2023-03-05T17:24:34.411Z,7.45
2023-03-05T17:27:01.906Z,12.48
2023-03-05T17:29:29.465Z,8.02
2023-03-05T17:31:57.000Z,11.52
2023-03-05T17:34:35.596Z,3.15
2023-03-05T17:37:05.293Z,3.55
2023-03-05T17:39:33.239Z,3.67
2023-03-05T17:42:01.196Z,4.43
2023-03-05T17:44:28.932Z,5.68
2023-03-05T17:46:56.412Z,4.22
2023-03-05T17:49:23.973Z,7.80
2023-03-05T17:51:51.551Z,6.10
2023-03-05T17:54:19.200Z,6.53
2023-03-05T17:56:48.188Z,1.80
2023-03-05T17:59:16.456Z,9.27
2023-03-05T18:01:44.194Z,2.55
2023-03-05T18:04:11.929Z,8.07
2023-03-05T18:06:39.410Z,5.38
2023-03-05T18:09:07.589Z,1.83
2023-03-05T18:11:35.486Z,4.78
2023-03-05T18:14:03.302Z,3.05
2023-03-05T18:16:30.764Z,2.70
2023-03-05T18:18:58.228Z,4.70
2023-03-05T18:21:27.995Z,3.78
2023-03-05T18:23:55.653Z,4.25
2023-03-05T18:26:23.111Z,3.85
2023-03-05T18:28:50.658Z,4.35
2023-03-05T18:31:18.808Z,7.60
2023-03-05T18:33:46.371Z,6.75
2023-03-05T18:36:15.049Z,3.50
2023-03-05T18:38:43.041Z,4.55
2023-03-05T18:41:20.548Z,5.03
2023-03-05T18:43:48.537Z,6.68
2023-03-05T18:46:16.832Z,3.78
2023-03-05T18:48:44.514Z,5.57
2023-03-05T18:51:15.617Z,3.65
2023-03-05T18:53:43.253Z,5.85
2023-03-05T18:56:10.880Z,5.10
2023-03-05T18:58:39.588Z,5.95
2023-03-05T19:01:07.974Z,6.57
2023-03-05T19:03:35.671Z,9.63
2023-03-05T19:06:07.035Z,10.63
2023-03-05T19:08:34.903Z,5.57
2023-03-05T19:11:02.724Z,7.97
2023-03-05T19:13:41.037Z,4.53
2023-03-05T19:16:11.818Z,8.93
2023-03-05T19:18:44.706Z,8.63
2023-03-05T19:21:12.395Z,6.60
2023-03-05T19:23:39.944Z,7.95
2023-03-05T19:26:07.458Z,7.65
2023-03-05T19:28:34.882Z,7.72
2023-03-05T19:31:02.435Z,12.13
2023-03-05T19:33:29.908Z,5.18
2023-03-05T19:35:57.469Z,5.03
2023-03-05T19:38:24.967Z,11.27
2023-03-05T19:40:52.466Z,22.20
2023-03-05T19:43:20.026Z,10.20
2023-03-05T19:45:47.482Z,10.90
2023-03-05T19:48:16.912Z,10.38
2023-03-05T19:50:44.496Z,6.90
2023-03-05T19:53:11.978Z,9.02
2023-03-05T19:55:40.898Z,9.35
2023-03-05T19:58:08.419Z,5.72
2023-03-05T20:00:36.910Z,11.43
2023-03-05T20:03:04.413Z,8.25
2023-03-05T20:05:32.097Z,15.82
2023-03-05T20:07:59.560Z,13.18
2023-03-05T20:10:27.209Z,14.02
2023-03-05T20:12:55.045Z,12.27
2023-03-05T20:15:23.465Z,7.07
2023-03-05T20:17:53.091Z,9.00
2023-03-05T20:20:20.689Z,16.00
2023-03-05T20:22:48.306Z,9.80
2023-03-05T20:25:17.474Z,10.95
2023-03-05T20:27:45.009Z,12.35
2023-03-05T20:30:15.476Z,8.25
2023-03-05T20:32:43.098Z,12.32
2023-03-05T20:35:18.431Z,23.35
2023-03-05T20:38:12.846Z,16.20
2023-03-05T20:40:40.684Z,21.45
2023-03-05T20:43:08.218Z,9.18
2023-03-05T20:45:35.817Z,14.73
2023-03-05T20:48:03.368Z,15.45
2023-03-05T20:50:30.835Z,13.80
2023-03-05T20:52:58.909Z,15.20
2023-03-05T20:55:29.711Z,16.83
2023-03-05T20:57:57.461Z,17.88
2023-03-05T21:00:25.272Z,11.10
2023-03-05T21:02:55.387Z,17.02
2023-03-05T21:05:28.701Z,15.57
2023-03-05T21:07:57.204Z,15.95
2023-03-05T21:10:25.213Z,12.93
2023-03-05T21:12:53.855Z,12.15
2023-03-05T21:15:25.078Z,10.18
2023-03-05T21:17:53.152Z,10.77
2023-03-05T21:20:24.129Z,13.18
2023-03-05T21:22:51.598Z,21.95
2023-03-05T21:25:28.957Z,18.90
2023-03-05T21:28:02.925Z,11.93
2023-03-05T21:30:52.055Z,9.25
2023-03-05T21:33:25.780Z,12.68
2023-03-05T21:35:54.509Z,13.45
2023-03-05T21:38:25.694Z,12.27
2023-03-05T21:40:54.035Z,10.98
2023-03-05T21:43:23.674Z,14.25
2023-03-05T21:45:53.612Z,9.25
2023-03-05T21:48:22.106Z,13.95
2023-03-05T21:50:50.226Z,12.27
2023-03-05T21:53:19.500Z,13.18
2023-03-05T21:56:02.712Z,12.13
2023-03-05T21:58:34.758Z,14.25
2023-03-05T22:01:02.827Z,10.85
2023-03-05T22:03:30.823Z,8.77
2023-03-05T22:05:58.520Z,8.77
2023-03-05T22:08:26.094Z,8.65
2023-03-05T22:10:54.529Z,6.18
2023-03-05T22:13:22.189Z,7.65
2023-03-05T22:15:54.752Z,8.43
2023-03-05T22:18:25.241Z,7.85
2023-03-05T22:20:53.228Z,13.38
2023-03-05T22:23:22.659Z,7.05
2023-03-05T22:26:01.995Z,9.55
2023-03-05T22:28:30.281Z,8.13
2023-03-05T22:30:58.023Z,8.25
2023-03-05T22:33:27.027Z,5.57
2023-03-05T22:35:54.592Z,11.60
2023-03-05T22:38:22.661Z,7.72
2023-03-05T22:40:51.156Z,7.63
2023-03-05T22:43:19.623Z,14.25
2023-03-05T22:45:47.336Z,8.02
2023-03-05T22:48:24.068Z,4.32
2023-03-05T22:50:55.900Z,8.25
2023-03-05T22:53:23.516Z,7.60
2023-03-05T22:55:50.978Z,5.10
2023-03-05T22:58:18.586Z,7.63
2023-03-05T23:00:46.206Z,7.75
2023-03-05T23:03:14.076Z,4.63
2023-03-05T23:05:42.145Z,4.60
2023-03-05T23:08:10.017Z,2.75
2023-03-05T23:10:37.540Z,6.88
2023-03-05T23:13:05.047Z,10.60
2023-03-05T23:15:36.242Z,6.35
2023-03-05T23:18:06.341Z,11.52
2023-03-05T23:20:36.583Z,13.82
2023-03-05T23:23:04.776Z,5.00
2023-03-05T23:25:34.214Z,10.18
2023-03-05T23:28:02.757Z,10.48
2023-03-05T23:30:37.248Z,5.40
2023-03-05T23:33:14.047Z,8.13
2023-03-05T23:35:48.912Z,6.50
2023-03-05T23:38:16.470Z,3.80
2023-03-05T23:40:48.654Z,8.48
2023-03-05T23:43:18.045Z,6.60
2023-03-05T23:45:48.181Z,3.75
2023-03-05T23:48:17.167Z,6.63
2023-03-05T23:50:50.233Z,8.93
2023-03-05T23:53:31.282Z,4.82
2023-03-05T23:55:58.880Z,5.57
2023-03-05T23:58:26.333Z,3.83
